Time;durP1;ratioP1;P1;durP2;ratioP2;P2;SDS_P1;SDS_P2;PMS_P1;PMS_P2;Temp;Humidity;BMP_temperature;BMP_pressure;BME280_temperature;BME280_humidity;BME280_pressure;Samples;Min_cycle;Max_cycle;Signal;HPM_P1;HPM_P2
2024/02/15 06:02:56;;;;;;;16.90;6.57;;;;;;;;;;4954716;29;20444;-74
2024/02/15 06:05:23;;;;;;;21.77;7.90;;;;;;;;;;4956245;29;20472;-72
2024/02/15 06:07:49;;;;;;;15.60;6.80;;;;;;;;;;4957485;28;20424;-75
2024/02/15 06:10:15;;;;;;;14.17;6.53;;;;;;;;;;4955586;28;20409;-71
2024/02/15 06:12:42;;;;;;;18.87;3.63;;;;;;;;;;4959631;28;20416;-72
2024/02/15 06:15:14;;;;;;;8.20;4.00;;;;;;;;;;5033964;22;20492;-76
2024/02/15 06:17:40;;;;;;;12.20;5.90;;;;;;;;;;5028305;28;20417;-77
2024/02/15 06:20:07;;;;;;;12.13;4.53;;;;;;;;;;5035527;28;20397;-76
2024/02/15 06:22:35;;;;;;;12.17;4.27;;;;;;;;;;5032006;28;20467;-77
2024/02/15 06:25:01;;;;;;;9.70;4.47;;;;;;;;;;5017191;28;20496;-77
2024/02/15 06:27:27;;;;;;;10.50;4.00;;;;;;;;;;5016817;28;20789;-76
2024/02/15 06:40:54;;;;;;;12.50;4.50;;;;;;;;;;4981849;28;20831;-73
2024/02/15 06:43:20;;;;;;;12.00;4.33;;;;;;;;;;4982798;28;20470;-74
2024/02/15 06:45:47;;;;;;;10.40;4.23;;;;;;;;;;4983711;28;20845;-75
2024/02/15 06:48:13;;;;;;;8.60;3.87;;;;;;;;;;4980398;28;20404;-74
2024/02/15 06:50:39;;;;;;;7.97;4.30;;;;;;;;;;4980268;28;20774;-73
2024/02/15 06:53:05;;;;;;;4.73;2.93;;;;;;;;;;4980647;28;20419;-75
2024/02/15 06:55:31;;;;;;;11.23;3.97;;;;;;;;;;4977613;28;20431;-74
2024/02/15 06:57:57;;;;;;;7.30;3.73;;;;;;;;;;4978683;28;20507;-74
2024/02/15 07:00:24;;;;;;;11.83;4.00;;;;;;;;;;4976717;28;20416;-74
2024/02/15 07:02:50;;;;;;;11.47;3.90;;;;;;;;;;4974014;28;20455;-74
2024/02/15 07:05:17;;;;;;;8.80;4.37;;;;;;;;;;4976475;28;20498;-73
2024/02/15 07:07:43;;;;;;;7.00;3.67;;;;;;;;;;4976710;28;20412;-74
2024/02/15 07:10:10;;;;;;;5.60;3.20;;;;;;;;;;4976885;28;20506;-74
2024/02/15 07:12:37;;;;;;;10.20;3.73;;;;;;;;;;4975661;28;20462;-74
2024/02/15 07:15:06;;;;;;;10.43;3.80;;;;;;;;;;4974872;28;20459;-74
2024/02/15 07:17:32;;;;;;;5.93;3.60;;;;;;;;;;4975609;28;20446;-73
2024/02/15 07:19:58;;;;;;;14.03;3.73;;;;;;;;;;4975378;28;20416;-74
2024/02/15 07:22:24;;;;;;;8.83;4.30;;;;;;;;;;4977800;28;20504;-73
2024/02/15 07:24:50;;;;;;;7.30;3.97;;;;;;;;;;4974825;28;20570;-73
2024/02/15 07:27:18;;;;;;;7.27;3.80;;;;;;;;;;4974623;28;20900;-73
2024/02/15 07:29:44;;;;;;;10.10;3.80;;;;;;;;;;4993461;28;20413;-73
2024/02/15 07:32:11;;;;;;;11.23;4.70;;;;;;;;;;4976784;28;20404;-75
2024/02/15 07:34:37;;;;;;;6.60;4.17;;;;;;;;;;4975502;28;20466;-75
2024/02/15 07:37:04;;;;;;;16.73;4.80;;;;;;;;;;4975412;28;20865;-73
2024/02/15 07:39:29;;;;;;;7.80;4.00;;;;;;;;;;4973595;28;20431;-73
2024/02/15 07:41:58;;;;;;;12.30;4.50;;;;;;;;;;4975590;28;20498;-73
2024/02/15 07:44:24;;;;;;;9.00;5.10;;;;;;;;;;4974912;28;20480;-73
2024/02/15 07:46:50;;;;;;;13.73;5.23;;;;;;;;;;4975182;28;20419;-73
2024/02/15 07:49:17;;;;;;;14.77;5.33;;;;;;;;;;4975347;28;20427;-74
2024/02/15 07:51:44;;;;;;;10.90;5.10;;;;;;;;;;4974858;28;20419;-74
2024/02/15 07:54:10;;;;;;;9.23;4.80;;;;;;;;;;4975139;28;20420;-73
2024/02/15 07:56:36;;;;;;;10.33;5.13;;;;;;;;;;4976202;28;20433;-74
2024/02/15 07:59:02;;;;;;;11.60;5.03;;;;;;;;;;4977596;28;20479;-73
2024/02/15 08:01:31;;;;;;;11.90;4.50;;;;;;;;;;4983011;28;20416;-75
2024/02/15 08:03:57;;;;;;;14.30;5.50;;;;;;;;;;4992309;28;20490;-73
2024/02/15 08:06:27;;;;;;;12.50;5.60;;;;;;;;;;4993058;28;20427;-74
2024/02/15 08:08:53;;;;;;;16.27;6.20;;;;;;;;;;4986761;28;20412;-74
2024/02/15 08:11:20;;;;;;;19.83;5.47;;;;;;;;;;4986887;28;20412;-74
2024/02/15 08:13:50;;;;;;;16.03;5.43;;;;;;;;;;4986843;28;20416;-74
2024/02/15 08:16:16;;;;;;;9.30;5.10;;;;;;;;;;4977988;28;20412;-75
2024/02/15 08:18:43;;;;;;;14.13;4.50;;;;;;;;;;4976746;28;20408;-74
2024/02/15 08:21:10;;;;;;;10.57;5.50;;;;;;;;;;4974674;28;20448;-74
2024/02/15 08:23:36;;;;;;;15.40;6.70;;;;;;;;;;4975414;28;20777;-73
2024/02/15 08:26:02;;;;;;;13.00;5.83;;;;;;;;;;4974864;28;20412;-74
2024/02/15 08:28:28;;;;;;;13.57;4.80;;;;;;;;;;4973493;28;20426;-74
2024/02/15 08:30:58;;;;;;;19.40;4.93;;;;;;;;;;4974359;28;20470;-75
2024/02/15 08:33:25;;;;;;;13.67;4.90;;;;;;;;;;4974281;28;20418;-74
2024/02/15 08:35:53;;;;;;;8.00;4.70;;;;;;;;;;4972409;28;20442;-74
2024/02/15 08:38:19;;;;;;;12.70;4.60;;;;;;;;;;4973776;28;20543;-74
2024/02/15 08:40:47;;;;;;;14.33;5.57;;;;;;;;;;4974103;28;20444;-75
2024/02/15 08:43:14;;;;;;;11.03;4.90;;;;;;;;;;4973749;28;20415;-74
2024/02/15 08:45:40;;;;;;;11.93;5.17;;;;;;;;;;4973441;28;20525;-74
2024/02/15 08:48:06;;;;;;;14.80;6.27;;;;;;;;;;4973999;28;20809;-74
2024/02/15 08:50:32;;;;;;;20.50;4.87;;;;;;;;;;4973725;28;20416;-74
2024/02/15 08:52:58;;;;;;;10.13;4.20;;;;;;;;;;4972669;28;20455;-73
2024/02/15 08:55:26;;;;;;;11.80;4.40;;;;;;;;;;4974800;28;20486;-74
2024/02/15 08:57:52;;;;;;;12.87;5.20;;;;;;;;;;4975924;28;20495;-74
2024/02/15 09:00:19;;;;;;;9.53;5.10;;;;;;;;;;4983424;28;20412;-74
2024/02/15 09:02:46;;;;;;;9.00;4.13;;;;;;;;;;4977318;28;20423;-73
2024/02/15 09:05:14;;;;;;;8.67;4.60;;;;;;;;;;4972705;28;20471;-73
2024/02/15 09:07:42;;;;;;;15.10;5.03;;;;;;;;;;4972466;28;20420;-75
2024/02/15 09:10:09;;;;;;;8.27;4.07;;;;;;;;;;4972037;28;20938;-74
2024/02/15 09:12:37;;;;;;;6.70;4.17;;;;;;;;;;4973680;28;20510;-75
2024/02/15 09:15:03;;;;;;;8.87;4.43;;;;;;;;;;4976563;28;20459;-73
2024/02/15 09:17:32;;;;;;;7.50;4.10;;;;;;;;;;4976965;28;20423;-75
2024/02/15 09:19:58;;;;;;;16.47;4.10;;;;;;;;;;4975904;28;20431;-75
2024/02/15 09:22:24;;;;;;;10.93;5.40;;;;;;;;;;4975667;28;20506;-74
2024/02/15 09:24:50;;;;;;;8.00;5.00;;;;;;;;;;4976825;28;20554;-74
2024/02/15 09:27:16;;;;;;;16.00;5.30;;;;;;;;;;4977533;28;20411;-74
2024/02/15 09:29:42;;;;;;;14.03;5.37;;;;;;;;;;4976906;28;20416;-74
2024/02/15 09:32:08;;;;;;;15.63;5.30;;;;;;;;;;4979454;28;20435;-74
2024/02/15 09:34:34;;;;;;;15.30;5.60;;;;;;;;;;4977953;28;20514;-74
2024/02/15 09:37:00;;;;;;;10.40;5.60;;;;;;;;;;4976598;28;20499;-73
2024/02/15 09:39:26;;;;;;;16.37;6.20;;;;;;;;;;4976598;28;20506;-75
2024/02/15 09:41:58;;;;;;;10.17;4.43;;;;;;;;;;4975063;28;20736;-74
2024/02/15 09:44:27;;;;;;;11.80;4.33;;;;;;;;;;4976796;28;20474;-74
2024/02/15 09:46:56;;;;;;;17.13;4.70;;;;;;;;;;4976487;28;20570;-73
2024/02/15 09:49:22;;;;;;;9.13;4.10;;;;;;;;;;4976628;28;20408;-75
2024/02/15 09:51:48;;;;;;;12.33;3.43;;;;;;;;;;4976202;28;20473;-73
2024/02/15 09:54:22;;;;;;;7.60;3.77;;;;;;;;;;4976111;28;20500;-74
2024/02/15 09:56:48;;;;;;;7.73;3.30;;;;;;;;;;4977049;28;20412;-73
2024/02/15 09:59:14;;;;;;;6.37;2.67;;;;;;;;;;4976771;28;20412;-74
2024/02/15 10:01:40;;;;;;;11.30;4.17;;;;;;;;;;4976504;28;20511;-74
2024/02/15 10:04:07;;;;;;;6.33;4.07;;;;;;;;;;4976496;28;20986;-74
2024/02/15 10:06:33;;;;;;;9.20;4.17;;;;;;;;;;4976807;28;20412;-75
2024/02/15 10:09:19;;;;;;;7.97;3.60;;;;;;;;;;4976579;28;20412;-74
2024/02/15 10:11:57;;;;;;;10.60;4.00;;;;;;;;;;4975984;28;20519;-74
2024/02/15 10:14:24;;;;;;;8.00;3.57;;;;;;;;;;4976626;28;20538;-75
2024/02/15 10:16:50;;;;;;;9.03;4.00;;;;;;;;;;4976778;28;20416;-74
2024/02/15 10:19:17;;;;;;;7.43;3.60;;;;;;;;;;4976203;28;20415;-74
2024/02/15 10:21:43;;;;;;;13.20;3.97;;;;;;;;;;4974858;28;20499;-74
2024/02/15 10:24:09;;;;;;;5.50;3.10;;;;;;;;;;4976071;28;21050;-75
2024/02/15 10:26:36;;;;;;;9.43;3.70;;;;;;;;;;4974188;28;20420;-74
2024/02/15 10:29:08;;;;;;;7.60;3.30;;;;;;;;;;4976738;28;20415;-74
2024/02/15 10:31:34;;;;;;;11.80;4.13;;;;;;;;;;4976818;28;20412;-74
2024/02/15 10:34:05;;;;;;;14.33;4.00;;;;;;;;;;4976847;28;20432;-74
2024/02/15 10:36:33;;;;;;;8.93;4.17;;;;;;;;;;4976740;28;20411;-75
2024/02/15 10:39:19;;;;;;;9.87;3.60;;;;;;;;;;4981192;28;20416;-74
2024/02/15 10:41:49;;;;;;;8.80;4.07;;;;;;;;;;4976674;28;20965;-73
2024/02/15 10:44:19;;;;;;;11.87;4.03;;;;;;;;;;4976625;28;20468;-74
2024/02/15 10:46:47;;;;;;;11.97;3.77;;;;;;;;;;4976379;28;20830;-75
2024/02/15 10:49:13;;;;;;;9.20;3.93;;;;;;;;;;4976047;28;20404;-75
2024/02/15 10:51:42;;;;;;;10.53;3.53;;;;;;;;;;4976100;28;20412;-74
2024/02/15 10:54:13;;;;;;;13.23;2.90;;;;;;;;;;4974202;28;20443;-74
2024/02/15 10:56:44;;;;;;;4.30;2.40;;;;;;;;;;4974396;28;20430;-75
2024/02/15 10:59:20;;;;;;;7.90;2.50;;;;;;;;;;4975607;28;20797;-74
2024/02/15 11:01:47;;;;;;;12.20;3.00;;;;;;;;;;4975136;28;20926;-73
2024/02/15 11:04:15;;;;;;;5.03;2.10;;;;;;;;;;4974908;28;20468;-74
2024/02/15 11:06:43;;;;;;;5.53;2.10;;;;;;;;;;4974983;28;20451;-76
2024/02/15 11:09:11;;;;;;;6.67;2.30;;;;;;;;;;4974949;28;20408;-74
2024/02/15 11:11:38;;;;;;;4.60;2.47;;;;;;;;;;4974502;28;20439;-74
2024/02/15 11:14:23;;;;;;;7.10;2.40;;;;;;;;;;4975542;28;20448;-74
2024/02/15 11:16:50;;;;;;;3.33;1.63;;;;;;;;;;4976676;28;20411;-74
2024/02/15 11:19:39;;;;;;;5.10;2.00;;;;;;;;;;4976317;28;20419;-74
2024/02/15 11:22:10;;;;;;;9.20;2.40;;;;;;;;;;4973376;28;20477;-74
2024/02/15 11:24:36;;;;;;;3.70;1.90;;;;;;;;;;4976052;28;20522;-74
2024/02/15 11:27:03;;;;;;;11.93;2.33;;;;;;;;;;4979233;28;20415;-75
2024/02/15 11:29:51;;;;;;;5.53;1.63;;;;;;;;;;4975064;28;20900;-74
2024/02/15 11:32:36;;;;;;;5.07;1.70;;;;;;;;;;4974654;28;20426;-75
2024/02/15 11:35:15;;;;;;;3.80;1.80;;;;;;;;;;4974404;28;20428;-74
2024/02/15 11:40:17;;;;;;;14.77;2.00;;;;;;;;;;4974149;28;20443;-74
2024/02/15 11:42:49;;;;;;;3.87;1.80;;;;;;;;;;4976420;28;20462;-74
2024/02/15 11:45:18;;;;;;;6.20;2.10;;;;;;;;;;4974836;28;20550;-74
2024/02/15 11:47:48;;;;;;;7.90;2.03;;;;;;;;;;4974389;28;20419;-74
2024/02/15 11:50:15;;;;;;;4.37;2.00;;;;;;;;;;4973793;28;20775;-75
2024/02/15 11:52:45;;;;;;;6.33;1.77;;;;;;;;;;4980582;28;20422;-74
2024/02/15 11:55:13;;;;;;;6.20;1.97;;;;;;;;;;4984851;28;20424;-75
2024/02/15 11:57:50;;;;;;;4.57;1.90;;;;;;;;;;4974920;28;20432;-74
2024/02/15 12:20:00;;;;;;;2.87;1.60;;;;;;;;;;5034195;28;20647;-75
2024/02/15 12:22:31;;;;;;;4.00;1.70;;;;;;;;;;5033133;28;20409;-75
2024/02/15 12:24:58;;;;;;;5.53;2.10;;;;;;;;;;5032426;28;20461;-75
2024/02/15 12:27:27;;;;;;;8.50;1.90;;;;;;;;;;5032754;28;20417;-75
2024/02/15 12:29:54;;;;;;;4.60;2.20;;;;;;;;;;5030802;28;20472;-75
2024/02/15 12:32:21;;;;;;;4.23;1.97;;;;;;;;;;5032107;28;20417;-75
2024/02/15 12:34:47;;;;;;;6.43;2.20;;;;;;;;;;5032046;28;20433;-75
2024/02/15 12:37:13;;;;;;;5.63;2.00;;;;;;;;;;5032108;28;20417;-74
2024/02/15 12:39:41;;;;;;;6.80;2.70;;;;;;;;;;5031775;28;20419;-75
2024/02/15 12:42:09;;;;;;;4.53;1.87;;;;;;;;;;5031740;28;20414;-75
2024/02/15 12:44:35;;;;;;;6.13;2.33;;;;;;;;;;5031563;28;20468;-75
2024/02/15 12:47:03;;;;;;;8.53;2.07;;;;;;;;;;5031675;28;20440;-75
2024/02/15 12:49:30;;;;;;;5.07;2.27;;;;;;;;;;5034765;28;20416;-74
2024/02/15 12:52:16;;;;;;;6.07;1.90;;;;;;;;;;5035509;28;20409;-74
2024/02/15 12:54:42;;;;;;;3.70;2.57;;;;;;;;;;5035476;28;20440;-75
2024/02/15 12:57:13;;;;;;;5.40;1.87;;;;;;;;;;5035579;28;20410;-76
2024/02/15 12:59:39;;;;;;;8.10;2.60;;;;;;;;;;5035797;28;20416;-75
2024/02/15 13:02:05;;;;;;;4.10;1.80;;;;;;;;;;5035921;28;20420;-76
2024/02/15 13:04:31;;;;;;;3.60;1.60;;;;;;;;;;5035338;28;20549;-76
2024/02/15 13:06:57;;;;;;;4.30;1.87;;;;;;;;;;5035510;28;20413;-75
2024/02/15 13:09:23;;;;;;;3.17;2.20;;;;;;;;;;5035711;28;20830;-76
2024/02/15 13:11:50;;;;;;;4.30;2.30;;;;;;;;;;5034975;28;20492;-75
2024/02/15 13:14:16;;;;;;;8.70;2.43;;;;;;;;;;5035257;28;20495;-76
2024/02/15 13:16:44;;;;;;;7.63;2.30;;;;;;;;;;5035570;28;20405;-76
2024/02/15 13:19:10;;;;;;;9.53;2.40;;;;;;;;;;5035173;28;20409;-76
2024/02/15 13:21:36;;;;;;;4.43;2.17;;;;;;;;;;5035140;28;20417;-76
2024/02/15 13:24:04;;;;;;;7.10;1.80;;;;;;;;;;5035100;28;20555;-76
2024/02/15 13:26:30;;;;;;;4.17;1.80;;;;;;;;;;5034878;28;20437;-76
2024/02/15 13:28:57;;;;;;;3.63;2.00;;;;;;;;;;5035243;28;20406;-75
2024/02/15 13:31:23;;;;;;;3.90;2.67;;;;;;;;;;5034784;28;20393;-76
2024/02/15 13:33:49;;;;;;;5.13;2.13;;;;;;;;;;5035383;28;20809;-75
2024/02/15 13:36:15;;;;;;;11.93;2.97;;;;;;;;;;5034905;28;20722;-75
2024/02/15 13:38:42;;;;;;;6.90;2.47;;;;;;;;;;5034901;28;20496;-75
2024/02/15 13:41:08;;;;;;;2.47;1.87;;;;;;;;;;5034511;28;20783;-74
2024/02/15 13:43:35;;;;;;;6.20;2.00;;;;;;;;;;5034938;28;20412;-76
2024/02/15 13:46:01;;;;;;;4.87;2.33;;;;;;;;;;5033304;28;20849;-76
2024/02/15 13:48:31;;;;;;;6.73;2.10;;;;;;;;;;5034681;28;20409;-75
2024/02/15 13:50:57;;;;;;;5.10;2.23;;;;;;;;;;5035483;28;20440;-76
2024/02/15 13:53:24;;;;;;;4.97;2.13;;;;;;;;;;5034588;28;20422;-75
2024/02/15 13:55:52;;;;;;;3.23;1.97;;;;;;;;;;5034368;28;20433;-75
2024/02/15 13:58:18;;;;;;;11.27;2.10;;;;;;;;;;5034164;28;20512;-74
2024/02/15 14:00:44;;;;;;;5.60;2.20;;;;;;;;;;5032992;28;20406;-75
2024/02/15 14:03:11;;;;;;;6.97;2.40;;;;;;;;;;5034496;28;20463;-74
2024/02/15 14:05:39;;;;;;;3.83;2.00;;;;;;;;;;5034298;28;20822;-75
2024/02/15 14:08:06;;;;;;;5.40;2.23;;;;;;;;;;5034458;28;20414;-75
2024/02/15 14:10:34;;;;;;;4.53;2.43;;;;;;;;;;5032959;28;20443;-74
2024/02/15 14:13:21;;;;;;;9.07;2.57;;;;;;;;;;5034840;28;20461;-75
2024/02/15 14:15:48;;;;;;;6.33;2.50;;;;;;;;;;5034007;28;20863;-76
2024/02/15 14:18:14;;;;;;;10.60;2.80;;;;;;;;;;5034483;28;20417;-74
2024/02/15 14:20:43;;;;;;;7.47;2.73;;;;;;;;;;5033664;28;20409;-74
2024/02/15 14:23:13;;;;;;;7.30;2.77;;;;;;;;;;5033865;28;20417;-75
2024/02/15 14:25:39;;;;;;;7.87;3.27;;;;;;;;;;5033683;28;20461;-76
2024/02/15 14:28:07;;;;;;;9.40;2.70;;;;;;;;;;5034138;28;20427;-75
2024/02/15 14:33:19;;;;;;;9.83;2.53;;;;;;;;;;5013985;28;20429;-75
2024/02/15 14:35:45;;;;;;;6.73;2.23;;;;;;;;;;5013900;28;20428;-76
2024/02/15 14:38:13;;;;;;;10.37;2.67;;;;;;;;;;5017502;28;20512;-73
2024/02/15 14:40:44;;;;;;;7.50;3.20;;;;;;;;;;5028595;28;20946;-73
2024/02/15 14:43:12;;;;;;;7.90;2.80;;;;;;;;;;5033659;28;20771;-73
2024/02/15 14:45:40;;;;;;;3.43;2.10;;;;;;;;;;5033191;28;20467;-73
2024/02/15 14:48:09;;;;;;;7.47;2.60;;;;;;;;;;5033346;28;20481;-74
2024/02/15 14:50:35;;;;;;;4.30;2.13;;;;;;;;;;5033340;28;20787;-72
2024/02/15 14:53:01;;;;;;;3.97;2.40;;;;;;;;;;5031195;28;20421;-78
2024/02/15 14:55:28;;;;;;;2.83;1.90;;;;;;;;;;5033472;28;20441;-78
2024/02/15 14:57:55;;;;;;;6.87;2.57;;;;;;;;;;5031898;28;20422;-75
2024/02/15 15:00:21;;;;;;;6.27;2.10;;;;;;;;;;5013654;28;20430;-77
2024/02/15 15:02:48;;;;;;;4.23;2.30;;;;;;;;;;5014758;28;20480;-75
2024/02/15 15:13:33;;;;;;;7.60;2.50;;;;;;;;;;5034409;28;20716;-77
2024/02/15 15:15:59;;;;;;;4.93;1.80;;;;;;;;;;5033301;28;20452;-76
2024/02/15 15:18:25;;;;;;;5.23;2.40;;;;;;;;;;5033407;28;20510;-77
2024/02/15 15:20:51;;;;;;;4.23;2.40;;;;;;;;;;5028611;28;20439;-75
2024/02/15 15:23:18;;;;;;;6.33;2.40;;;;;;;;;;5018798;28;20897;-77
2024/02/15 15:25:44;;;;;;;4.37;3.10;;;;;;;;;;5012845;28;20476;-77
2024/02/15 15:28:10;;;;;;;5.90;2.70;;;;;;;;;;5012712;28;20433;-77
2024/02/15 15:30:37;;;;;;;4.63;2.50;;;;;;;;;;5013255;28;20411;-76
2024/02/15 15:33:03;;;;;;;8.40;2.67;;;;;;;;;;5014178;28;20963;-77
2024/02/15 15:35:29;;;;;;;7.20;2.87;;;;;;;;;;5022614;28;20445;-75
2024/02/15 15:37:57;;;;;;;6.40;3.17;;;;;;;;;;5035105;28;20786;-77
2024/02/15 15:40:23;;;;;;;6.90;2.80;;;;;;;;;;5035125;28;20780;-77
2024/02/15 15:42:49;;;;;;;5.03;3.00;;;;;;;;;;5033712;28;21099;-77
2024/02/15 15:45:15;;;;;;;9.80;3.07;;;;;;;;;;5033681;28;20496;-77
2024/02/15 15:47:42;;;;;;;7.73;3.50;;;;;;;;;;5025083;28;20457;-75
2024/02/15 15:50:10;;;;;;;4.10;2.87;;;;;;;;;;5015404;28;20445;-77
2024/02/15 15:52:37;;;;;;;7.17;3.50;;;;;;;;;;5022277;28;20406;-77
2024/02/15 15:55:04;;;;;;;3.73;2.40;;;;;;;;;;5018407;28;20944;-77
2024/02/15 15:57:29;;;;;;;10.90;2.63;;;;;;;;;;5014950;28;20421;-72
2024/02/15 15:59:56;;;;;;;7.93;3.03;;;;;;;;;;5016837;28;20417;-73
2024/02/15 16:02:22;;;;;;;5.97;2.50;;;;;;;;;;5031826;28;20814;-74
2024/02/15 16:04:48;;;;;;;8.33;3.20;;;;;;;;;;5031849;28;20499;-74
2024/02/15 16:07:15;;;;;;;5.70;3.10;;;;;;;;;;5031578;28;20433;-74
2024/02/15 16:09:44;;;;;;;9.17;2.47;;;;;;;;;;5032184;28;20409;-73
2024/02/15 16:12:15;;;;;;;10.20;2.50;;;;;;;;;;5031976;28;20409;-74
2024/02/15 16:14:44;;;;;;;6.33;2.93;;;;;;;;;;5026851;28;20682;-76
2024/02/15 16:17:11;;;;;;;5.43;2.67;;;;;;;;;;5012371;28;20424;-74
2024/02/15 16:19:37;;;;;;;19.20;4.43;;;;;;;;;;5019706;28;20417;-75
2024/02/15 16:22:03;;;;;;;3.93;2.63;;;;;;;;;;5022808;28;20423;-75
2024/02/15 16:24:31;;;;;;;5.37;2.50;;;;;;;;;;5030594;28;20499;-74
2024/02/15 16:26:57;;;;;;;4.60;2.63;;;;;;;;;;5030172;28;20425;-74
2024/02/15 16:29:24;;;;;;;7.60;3.10;;;;;;;;;;5019892;28;20422;-74
2024/02/15 16:31:50;;;;;;;6.80;2.90;;;;;;;;;;5014399;28;20421;-74
2024/02/15 16:34:17;;;;;;;5.53;2.57;;;;;;;;;;5012031;28;20433;-74
2024/02/15 16:36:48;;;;;;;7.40;2.77;;;;;;;;;;5011998;28;20410;-73
2024/02/15 16:39:14;;;;;;;7.47;2.50;;;;;;;;;;5012088;28;20420;-74
2024/02/15 16:41:41;;;;;;;7.57;2.93;;;;;;;;;;5011678;28;20414;-72
2024/02/15 16:44:07;;;;;;;6.40;2.47;;;;;;;;;;5019400;28;20894;-73
2024/02/15 16:46:33;;;;;;;4.60;2.37;;;;;;;;;;5031945;28;20405;-73
2024/02/15 16:49:00;;;;;;;4.77;2.57;;;;;;;;;;5032147;28;20409;-72
2024/02/15 16:51:26;;;;;;;7.33;2.50;;;;;;;;;;5032014;28;20413;-74
2024/02/15 16:53:52;;;;;;;6.50;2.50;;;;;;;;;;5032107;28;20417;-72
2024/02/15 16:56:23;;;;;;;14.10;3.40;;;;;;;;;;5031616;28;20515;-73
2024/02/15 16:58:49;;;;;;;8.50;3.10;;;;;;;;;;5031752;28;20433;-73
2024/02/15 17:01:15;;;;;;;9.53;4.10;;;;;;;;;;5031586;28;20409;-73
2024/02/15 17:03:41;;;;;;;8.70;3.40;;;;;;;;;;5031653;28;20417;-73
2024/02/15 17:06:07;;;;;;;6.70;2.80;;;;;;;;;;5031460;28;20954;-73
2024/02/15 17:08:33;;;;;;;3.83;2.67;;;;;;;;;;5023903;28;20418;-73
2024/02/15 17:10:59;;;;;;;10.53;3.60;;;;;;;;;;5011736;28;20419;-73
2024/02/15 17:13:25;;;;;;;9.43;3.63;;;;;;;;;;5011800;28;20407;-74
2024/02/15 17:15:51;;;;;;;6.37;3.17;;;;;;;;;;5011923;28;20823;-73
2024/02/15 17:18:17;;;;;;;8.20;2.90;;;;;;;;;;5011971;28;20414;-74
2024/02/15 17:20:44;;;;;;;5.67;3.00;;;;;;;;;;5013356;28;20420;-73
2024/02/15 17:23:10;;;;;;;7.30;3.10;;;;;;;;;;5031538;28;20931;-74
2024/02/15 17:25:36;;;;;;;10.93;3.00;;;;;;;;;;5015566;28;20976;-73
2024/02/15 17:28:06;;;;;;;11.20;4.50;;;;;;;;;;5011515;28;20421;-73
2024/02/15 17:30:32;;;;;;;8.07;3.00;;;;;;;;;;5011592;28;20827;-73
2024/02/15 17:32:58;;;;;;;6.13;3.53;;;;;;;;;;5012833;28;20418;-73
2024/02/15 17:35:25;;;;;;;7.07;4.20;;;;;;;;;;5014141;28;20460;-73
2024/02/15 17:37:51;;;;;;;6.23;3.13;;;;;;;;;;5015209;28;20828;-73
2024/02/15 17:40:17;;;;;;;9.33;4.03;;;;;;;;;;5025967;28;20436;-73
2024/02/15 17:42:44;;;;;;;6.33;3.40;;;;;;;;;;5034817;28;20418;-73
2024/02/15 17:45:11;;;;;;;10.13;4.63;;;;;;;;;;5017942;28;20512;-74
2024/02/15 17:47:39;;;;;;;6.00;3.57;;;;;;;;;;5015166;28;21044;-74
2024/02/15 17:50:08;;;;;;;9.53;4.07;;;;;;;;;;5024991;28;20405;-72
2024/02/15 17:52:34;;;;;;;11.63;4.30;;;;;;;;;;5034407;28;20401;-73
2024/02/15 17:55:00;;;;;;;5.07;3.30;;;;;;;;;;5034548;28;20436;-73
2024/02/15 17:57:26;;;;;;;7.20;4.33;;;;;;;;;;5034838;28;20425;-73
2024/02/15 17:59:52;;;;;;;10.00;4.70;;;;;;;;;;5021425;28;20433;-73
2024/02/15 18:02:18;;;;;;;15.63;5.10;;;;;;;;;;5014672;28;20418;-72
2024/02/15 18:04:44;;;;;;;7.47;4.33;;;;;;;;;;5014520;28;20976;-72
2024/02/15 18:07:10;;;;;;;14.47;6.00;;;;;;;;;;5014747;28;20916;-73
2024/02/15 18:09:36;;;;;;;10.27;4.80;;;;;;;;;;5014734;28;20452;-74
2024/02/15 18:12:02;;;;;;;12.30;4.60;;;;;;;;;;5014708;28;20828;-73
2024/02/15 18:14:28;;;;;;;9.20;4.47;;;;;;;;;;5014561;28;20473;-72
2024/02/15 18:16:56;;;;;;;10.43;4.63;;;;;;;;;;5014654;28;20827;-73
2024/02/15 18:19:22;;;;;;;13.67;5.47;;;;;;;;;;5014478;28;20823;-71
2024/02/15 18:21:49;;;;;;;11.63;5.33;;;;;;;;;;5014336;28;20448;-72
2024/02/15 18:24:15;;;;;;;11.87;5.37;;;;;;;;;;5022875;28;20508;-72
2024/02/15 18:26:41;;;;;;;16.10;6.37;;;;;;;;;;5033960;28;20776;-72
2024/02/15 18:29:08;;;;;;;17.07;5.60;;;;;;;;;;5034314;28;20416;-72
2024/02/15 18:31:35;;;;;;;12.40;5.30;;;;;;;;;;5032328;28;20416;-72
2024/02/15 18:34:01;;;;;;;11.90;5.50;;;;;;;;;;5032400;28;20415;-72
2024/02/15 18:36:27;;;;;;;14.83;5.90;;;;;;;;;;5033912;28;20416;-72
2024/02/15 18:38:53;;;;;;;12.13;6.20;;;;;;;;;;5017942;28;20446;-72
2024/02/15 18:41:19;;;;;;;19.73;7.87;;;;;;;;;;5012576;28;20418;-72
2024/02/15 18:43:49;;;;;;;19.90;5.87;;;;;;;;;;5014149;28;20920;-70
2024/02/15 18:46:15;;;;;;;15.07;6.47;;;;;;;;;;5013577;28;20493;-72
2024/02/15 18:48:41;;;;;;;18.20;6.80;;;;;;;;;;5014005;28;20468;-72
2024/02/15 18:51:07;;;;;;;19.80;6.20;;;;;;;;;;5028957;28;20429;-72
2024/02/15 18:53:33;;;;;;;19.23;6.17;;;;;;;;;;5032455;28;20428;-73
2024/02/15 18:55:59;;;;;;;15.27;6.80;;;;;;;;;;5033544;28;20807;-72
2024/02/15 18:58:27;;;;;;;19.40;7.00;;;;;;;;;;5033724;28;20463;-72
2024/02/15 19:00:53;;;;;;;17.67;6.90;;;;;;;;;;5031901;28;20827;-71
2024/02/15 19:03:20;;;;;;;15.43;5.90;;;;;;;;;;5033461;28;20413;-71
2024/02/15 19:05:46;;;;;;;13.03;6.30;;;;;;;;;;5032743;28;20469;-72
2024/02/15 19:08:12;;;;;;;11.80;5.37;;;;;;;;;;5033963;28;20421;-72
2024/02/15 19:10:38;;;;;;;13.07;5.60;;;;;;;;;;5033460;28;20587;-72
2024/02/15 19:13:04;;;;;;;16.50;5.77;;;;;;;;;;5033423;28;20412;-72
2024/02/15 19:15:31;;;;;;;10.10;4.80;;;;;;;;;;5033008;28;20449;-71
2024/02/15 19:17:59;;;;;;;11.77;5.07;;;;;;;;;;5021919;28;20432;-72
2024/02/15 19:20:25;;;;;;;8.10;4.50;;;;;;;;;;5013206;28;20414;-72
2024/02/15 19:22:51;;;;;;;7.73;5.13;;;;;;;;;;5013723;28;20502;-72
2024/02/15 19:25:17;;;;;;;9.33;4.50;;;;;;;;;;5013297;28;20524;-72
2024/02/15 19:27:45;;;;;;;8.60;4.30;;;;;;;;;;5013341;28;20406;-72
2024/02/15 19:30:11;;;;;;;9.97;5.13;;;;;;;;;;5013948;28;20449;-72
2024/02/15 19:32:37;;;;;;;11.50;4.40;;;;;;;;;;5013731;28;20932;-71
2024/02/15 19:35:03;;;;;;;8.20;4.63;;;;;;;;;;5013346;28;20432;-71
2024/02/15 19:37:30;;;;;;;12.30;5.20;;;;;;;;;;5013431;28;20406;-71
2024/02/15 19:39:56;;;;;;;15.30;5.50;;;;;;;;;;5013446;28;20479;-72
2024/02/15 19:42:22;;;;;;;11.27;5.77;;;;;;;;;;5013315;28;20444;-71
2024/02/15 19:44:49;;;;;;;14.43;5.90;;;;;;;;;;5028045;28;20476;-71
2024/02/15 19:47:17;;;;;;;9.53;5.17;;;;;;;;;;5032150;28;20409;-72
2024/02/15 19:49:43;;;;;;;10.97;5.00;;;;;;;;;;5033390;28;20534;-72
2024/02/15 19:52:09;;;;;;;11.10;5.37;;;;;;;;;;5032858;28;20414;-72
2024/02/15 19:54:35;;;;;;;9.10;5.13;;;;;;;;;;5032754;28;20438;-71
2024/02/15 19:57:02;;;;;;;11.70;4.70;;;;;;;;;;5032412;28;20413;-72
2024/02/15 19:59:29;;;;;;;11.43;5.00;;;;;;;;;;5012429;28;20421;-72
2024/02/15 20:01:55;;;;;;;7.97;4.70;;;;;;;;;;5012842;28;20418;-72
2024/02/15 20:04:21;;;;;;;9.03;5.03;;;;;;;;;;5013571;28;20465;-71
2024/02/15 20:06:47;;;;;;;8.07;3.83;;;;;;;;;;5013020;28;20534;-71
2024/02/15 20:09:14;;;;;;;7.30;4.70;;;;;;;;;;5013089;28;20669;-71
2024/02/15 20:11:40;;;;;;;12.97;5.23;;;;;;;;;;5014298;28;20406;-71
2024/02/15 20:14:06;;;;;;;9.77;5.17;;;;;;;;;;5013827;28;20410;-71
2024/02/15 20:16:33;;;;;;;8.40;5.20;;;;;;;;;;5016896;28;20416;-72
2024/02/15 20:19:02;;;;;;;10.43;5.57;;;;;;;;;;5033430;28;20409;-71
2024/02/15 20:21:32;;;;;;;11.33;4.60;;;;;;;;;;5034216;28;20405;-71
2024/02/15 20:23:59;;;;;;;10.83;5.23;;;;;;;;;;5035005;28;20401;-71
2024/02/15 20:26:26;;;;;;;16.07;5.70;;;;;;;;;;5033490;28;20916;-71
2024/02/15 20:28:53;;;;;;;21.07;8.47;;;;;;;;;;5034583;28;20900;-71
2024/02/15 20:31:20;;;;;;;10.33;7.10;;;;;;;;;;5033417;28;20413;-71
2024/02/15 20:33:46;;;;;;;10.00;5.10;;;;;;;;;;5019416;28;20828;-71
2024/02/15 20:36:12;;;;;;;12.00;5.87;;;;;;;;;;5014969;28;20437;-71
2024/02/15 20:38:40;;;;;;;12.57;5.63;;;;;;;;;;5013586;28;20410;-71
2024/02/15 20:41:09;;;;;;;15.80;6.07;;;;;;;;;;5012938;28;20414;-72
2024/02/15 20:43:35;;;;;;;12.80;6.27;;;;;;;;;;5012724;28;20410;-72
2024/02/15 20:46:02;;;;;;;18.33;6.70;;;;;;;;;;5012373;28;20472;-72
2024/02/15 20:48:28;;;;;;;12.13;6.37;;;;;;;;;;5012901;28;20441;-72
2024/02/15 20:50:54;;;;;;;15.90;6.60;;;;;;;;;;5012351;28;20492;-72
2024/02/15 20:53:21;;;;;;;12.20;5.80;;;;;;;;;;5013762;28;20446;-72
2024/02/15 20:55:47;;;;;;;12.33;6.70;;;;;;;;;;5011947;28;20430;-72
2024/02/15 20:58:13;;;;;;;17.73;8.00;;;;;;;;;;5012222;28;20411;-72
2024/02/15 21:00:41;;;;;;;11.67;6.57;;;;;;;;;;5011938;28;20437;-72
2024/02/15 21:03:07;;;;;;;12.03;6.73;;;;;;;;;;5012278;28;20480;-72
2024/02/15 21:05:33;;;;;;;12.80;7.33;;;;;;;;;;5012032;28;20867;-72
2024/02/15 21:07:59;;;;;;;16.57;7.43;;;;;;;;;;5017989;28;20452;-71
2024/02/15 21:10:26;;;;;;;16.73;7.50;;;;;;;;;;5014419;28;20413;-71
2024/02/15 21:12:52;;;;;;;17.80;6.40;;;;;;;;;;5014797;28;20509;-72
2024/02/15 21:15:18;;;;;;;14.13;7.10;;;;;;;;;;5015736;28;21060;-72
2024/02/15 21:17:44;;;;;;;15.20;6.67;;;;;;;;;;5015837;28;20409;-72
2024/02/15 21:20:11;;;;;;;14.63;7.43;;;;;;;;;;5016036;28;20894;-72
2024/02/15 21:22:38;;;;;;;18.90;7.20;;;;;;;;;;5024602;28;20967;-72
2024/02/15 21:25:04;;;;;;;16.83;7.73;;;;;;;;;;5025925;28;20537;-72